sensor_id;sensor_type;location;lat;lon;timestamp;pressure;altitude;pressure_sealevel;temperature
64296;BMP280;51082;38.236;15.432;2023-07-08T00:00:16;101660.56;;;25.20
64296;BMP280;51082;38.236;15.432;2023-07-08T00:01:22;101658.69;;;25.20
64296;BMP280;51082;38.236;15.432;2023-07-08T00:02:25;101669.63;;;25.24
64296;BMP280;51082;38.236;15.432;2023-07-08T00:03:27;101663.47;;;25.23
64296;BMP280;51082;38.236;15.432;2023-07-08T00:04:29;101659.19;;;25.22
64296;BMP280;51082;38.236;15.432;2023-07-08T00:05:33;101663.72;;;25.22
64296;BMP280;51082;38.236;15.432;2023-07-08T00:06:39;101666.13;;;25.23
64296;BMP280;51082;38.236;15.432;2023-07-08T00:07:41;101665.59;;;25.21
64296;BMP280;51082;38.236;15.432;2023-07-08T00:08:44;101661.88;;;25.22
64296;BMP280;51082;38.236;15.432;2023-07-08T00:09:47;101667.72;;;25.24
64296;BMP280;51082;38.236;15.432;2023-07-08T00:10:51;101657.59;;;25.21
64296;BMP280;51082;38.236;15.432;2023-07-08T00:11:53;101657.59;;;25.21
64296;BMP280;51082;38.236;15.432;2023-07-08T00:12:57;101655.47;;;25.18
64296;BMP280;51082;38.236;15.432;2023-07-08T00:13:58;101650.44;;;25.16
64296;BMP280;51082;38.236;15.432;2023-07-08T00:15:01;101652.56;;;25.20
64296;BMP280;51082;38.236;15.432;2023-07-08T00:16:03;101651.19;;;25.22
64296;BMP280;51082;38.236;15.432;2023-07-08T00:17:13;101657.34;;;25.28
64296;BMP280;51082;38.236;15.432;2023-07-08T00:18:16;101655.19;;;25.25
64296;BMP280;51082;38.236;15.432;2023-07-08T00:19:20;101652.53;;;25.25
64296;BMP280;51082;38.236;15.432;2023-07-08T00:20:31;101649.88;;;25.25
64296;BMP280;51082;38.236;15.432;2023-07-08T00:21:39;101646.94;;;25.26
64296;BMP280;51082;38.236;15.432;2023-07-08T00:22:41;101650.66;;;25.25
64296;BMP280;51082;38.236;15.432;2023-07-08T00:23:48;101650.66;;;25.25
64296;BMP280;51082;38.236;15.432;2023-07-08T00:24:51;101650.97;;;25.24
64296;BMP280;51082;38.236;15.432;2023-07-08T00:25:54;101651.47;;;25.26
64296;BMP280;51082;38.236;15.432;2023-07-08T00:26:55;101652.28;;;25.26
64296;BMP280;51082;38.236;15.432;2023-07-08T00:27:58;101651.19;;;25.27
64296;BMP280;51082;38.236;15.432;2023-07-08T00:29:00;101654.91;;;25.31
64296;BMP280;51082;38.236;15.432;2023-07-08T00:30:17;101651.19;;;25.32
64296;BMP280;51082;38.236;15.432;2023-07-08T00:31:25;101652.53;;;25.30
64296;BMP280;51082;38.236;15.432;2023-07-08T00:32:28;101642.38;;;25.32
64296;BMP280;51082;38.236;15.432;2023-07-08T00:33:32;101644.25;;;25.31
64296;BMP280;51082;38.236;15.432;2023-07-08T00:34:35;101644.81;;;25.28
64296;BMP280;51082;38.236;15.432;2023-07-08T00:35:39;101644.28;;;25.26
64296;BMP280;51082;38.236;15.432;2023-07-08T00:36:44;101644.00;;;25.28
64296;BMP280;51082;38.236;15.432;2023-07-08T00:37:46;101644.53;;;25.25
64296;BMP280;51082;38.236;15.432;2023-07-08T00:38:49;101647.47;;;25.28
64296;BMP280;51082;38.236;15.432;2023-07-08T00:39:50;101642.69;;;25.30
64296;BMP280;51082;38.236;15.432;2023-07-08T00:40:58;101638.16;;;25.31
64296;BMP280;51082;38.236;15.432;2023-07-08T00:42:01;101648.53;;;25.27
64296;BMP280;51082;38.236;15.432;2023-07-08T00:43:08;101641.88;;;25.30
64296;BMP280;51082;38.236;15.432;2023-07-08T00:44:14;101644.25;;;25.31
64296;BMP280;51082;38.236;15.432;2023-07-08T00:45:24;101647.47;;;25.33
64296;BMP280;51082;38.236;15.432;2023-07-08T00:46:46;101645.88;;;25.32
64296;BMP280;51082;38.236;15.432;2023-07-08T00:47:54;101642.69;;;25.25
64296;BMP280;51082;38.236;15.432;2023-07-08T00:49:01;101650.66;;;25.25
64296;BMP280;51082;38.236;15.432;2023-07-08T00:50:11;101645.88;;;25.22
64296;BMP280;51082;38.236;15.432;2023-07-08T00:51:12;101649.59;;;25.21
64296;BMP280;51082;38.236;15.432;2023-07-08T00:52:26;101648.84;;;25.21
64296;BMP280;51082;38.236;15.432;2023-07-08T00:53:35;101645.59;;;25.18
64296;BMP280;51082;38.236;15.432;2023-07-08T00:54:38;101639.78;;;25.16
64296;BMP280;51082;38.236;15.432;2023-07-08T00:55:40;101637.09;;;25.16
64296;BMP280;51082;38.236;15.432;2023-07-08T00:56:47;101642.72;;;25.15
64296;BMP280;51082;38.236;15.432;2023-07-08T00:57:52;101646.44;;;25.19
64296;BMP280;51082;38.236;15.432;2023-07-08T00:59:01;101641.34;;;25.23
64296;BMP280;51082;38.236;15.432;2023-07-08T01:00:05;101640.03;;;25.20
64296;BMP280;51082;38.236;15.432;2023-07-08T01:01:12;101648.28;;;25.18
64296;BMP280;51082;38.236;15.432;2023-07-08T01:02:16;101645.38;;;25.20
64296;BMP280;51082;38.236;15.432;2023-07-08T01:03:23;101650.66;;;25.25
64296;BMP280;51082;38.236;15.432;2023-07-08T01:04:33;101651.19;;;25.22
64296;BMP280;51082;38.236;15.432;2023-07-08T01:05:37;101655.47;;;25.23
64296;BMP280;51082;38.236;15.432;2023-07-08T01:06:44;101653.88;;;25.22
64296;BMP280;51082;38.236;15.432;2023-07-08T01:07:51;101648.84;;;25.21
64296;BMP280;51082;38.236;15.432;2023-07-08T01:08:55;101649.59;;;25.21
64296;BMP280;51082;38.236;15.432;2023-07-08T01:10:02;101654.66;;;25.23
64296;BMP280;51082;38.236;15.432;2023-07-08T01:11:05;101649.06;;;25.24
64296;BMP280;51082;38.236;15.432;2023-07-08T01:12:12;101646.94;;;25.26
64296;BMP280;51082;38.236;15.432;2023-07-08T01:13:15;101646.91;;;25.31
64296;BMP280;51082;38.236;15.432;2023-07-08T01:14:20;101653.88;;;25.32
64296;BMP280;51082;38.236;15.432;2023-07-08T01:15:27;101642.94;;;25.34
64296;BMP280;51082;38.236;15.432;2023-07-08T01:16:32;101645.88;;;25.32
64296;BMP280;51082;38.236;15.432;2023-07-08T01:17:35;101641.34;;;25.33
64296;BMP280;51082;38.236;15.432;2023-07-08T01:18:38;101644.50;;;25.35
64296;BMP280;51082;38.236;15.432;2023-07-08T01:19:40;101652.00;;;25.33
64296;BMP280;51082;38.236;15.432;2023-07-08T01:20:42;101654.41;;;25.34
64296;BMP280;51082;38.236;15.432;2023-07-08T01:21:58;101649.56;;;25.31
64296;BMP280;51082;38.236;15.432;2023-07-08T01:23:00;101649.59;;;25.26
64296;BMP280;51082;38.236;15.432;2023-07-08T01:24:07;101653.88;;;25.27
64296;BMP280;51082;38.236;15.432;2023-07-08T01:25:11;101659.47;;;25.31
64296;BMP280;51082;38.236;15.432;2023-07-08T01:26:16;101659.47;;;25.31
64296;BMP280;51082;38.236;15.432;2023-07-08T01:27:19;101658.94;;;25.34
64296;BMP280;51082;38.236;15.432;2023-07-08T01:28:22;101661.88;;;25.32
64296;BMP280;51082;38.236;15.432;2023-07-08T01:29:24;101646.94;;;25.26
64296;BMP280;51082;38.236;15.432;2023-07-08T01:30:29;101650.66;;;25.25
64296;BMP280;51082;38.236;15.432;2023-07-08T01:31:32;101646.44;;;25.19
64296;BMP280;51082;38.236;15.432;2023-07-08T01:32:43;101659.72;;;25.14
64296;BMP280;51082;38.236;15.432;2023-07-08T01:33:47;101655.50;;;25.08
64296;BMP280;51082;38.236;15.432;2023-07-08T01:34:52;101663.50;;;25.08
64296;BMP280;51082;38.236;15.432;2023-07-08T01:36:01;101658.47;;;25.06
64296;BMP280;51082;38.236;15.432;2023-07-08T01:37:09;101662.97;;;25.01
64296;BMP280;51082;38.236;15.432;2023-07-08T01:38:14;101665.91;;;24.99
64296;BMP280;51082;38.236;15.432;2023-07-08T01:39:21;101665.91;;;24.99
64296;BMP280;51082;38.236;15.432;2023-07-08T01:40:29;101660.31;;;24.96
64296;BMP280;51082;38.236;15.432;2023-07-08T01:41:32;101662.19;;;24.95
64296;BMP280;51082;38.236;15.432;2023-07-08T01:42:34;101656.56;;;24.97
64296;BMP280;51082;38.236;15.432;2023-07-08T01:43:37;101659.25;;;24.97
64296;BMP280;51082;38.236;15.432;2023-07-08T01:44:40;101647.28;;;24.89
64296;BMP280;51082;38.236;15.432;2023-07-08T01:45:43;101652.31;;;24.96
64296;BMP280;51082;38.236;15.432;2023-07-08T01:46:45;101657.13;;;24.99
64296;BMP280;51082;38.236;15.432;2023-07-08T01:47:51;101653.38;;;24.95
64296;BMP280;51082;38.236;15.432;2023-07-08T01:48:56;101656.03;;;24.95
64296;BMP280;51082;38.236;15.432;2023-07-08T01:49:59;101654.97;;;24.91
64296;BMP280;51082;38.236;15.432;2023-07-08T01:51:03;101656.56;;;24.92
64296;BMP280;51082;38.236;15.432;2023-07-08T01:52:10;101656.56;;;24.92
64296;BMP280;51082;38.236;15.432;2023-07-08T01:53:16;101658.72;;;24.90
64296;BMP280;51082;38.236;15.432;2023-07-08T01:54:19;101654.16;;;24.90
64296;BMP280;51082;38.236;15.432;2023-07-08T01:55:22;101664.31;;;24.88
64296;BMP280;51082;38.236;15.432;2023-07-08T01:56:27;101661.38;;;24.85
64296;BMP280;51082;38.236;15.432;2023-07-08T01:57:29;101660.59;;;24.84
64296;BMP280;51082;38.236;15.432;2023-07-08T01:58:32;101656.59;;;24.81
64296;BMP280;51082;38.236;15.432;2023-07-08T01:59:34;101654.19;;;24.80
64296;BMP280;51082;38.236;15.432;2023-07-08T02:00:37;101651.81;;;24.78
64296;BMP280;51082;38.236;15.432;2023-07-08T02:01:38;101646.72;;;24.77
64296;BMP280;51082;38.236;15.432;2023-07-08T02:02:41;101641.16;;;24.78
64296;BMP280;51082;38.236;15.432;2023-07-08T02:03:43;101647.53;;;24.77
64296;BMP280;51082;38.236;15.432;2023-07-08T02:04:47;101645.91;;;24.76
64296;BMP280;51082;38.236;15.432;2023-07-08T02:05:49;101648.59;;;24.76
64296;BMP280;51082;38.236;15.432;2023-07-08T02:06:59;101651.25;;;24.71
64296;BMP280;51082;38.236;15.432;2023-07-08T02:08:03;101654.44;;;24.73
64296;BMP280;51082;38.236;15.432;2023-07-08T02:09:08;101640.88;;;24.70
64296;BMP280;51082;38.236;15.432;2023-07-08T02:10:10;101645.66;;;24.68
64296;BMP280;51082;38.236;15.432;2023-07-08T02:11:12;101645.66;;;24.68
64296;BMP280;51082;38.236;15.432;2023-07-08T02:12:16;101645.94;;;24.66
64296;BMP280;51082;38.236;15.432;2023-07-08T02:13:19;101644.59;;;24.64
64296;BMP280;51082;38.236;15.432;2023-07-08T02:14:21;101648.88;;;24.70
64296;BMP280;51082;38.236;15.432;2023-07-08T02:15:25;101642.19;;;24.72
64296;BMP280;51082;38.236;15.432;2023-07-08T02:16:27;101639.53;;;24.77
64296;BMP280;51082;38.236;15.432;2023-07-08T02:17:29;101647.28;;;24.74
64296;BMP280;51082;38.236;15.432;2023-07-08T02:18:31;101645.13;;;24.76
64296;BMP280;51082;38.236;15.432;2023-07-08T02:19:34;101643.81;;;24.78
64296;BMP280;51082;38.236;15.432;2023-07-08T02:20:36;101648.84;;;24.80
64296;BMP280;51082;38.236;15.432;2023-07-08T02:21:39;101641.41;;;24.82
64296;BMP280;51082;38.236;15.432;2023-07-08T02:22:43;101647.53;;;24.82
64296;BMP280;51082;38.236;15.432;2023-07-08T02:23:52;101646.19;;;24.80
64296;BMP280;51082;38.236;15.432;2023-07-08T02:25:05;101641.97;;;24.79
64296;BMP280;51082;38.236;15.432;2023-07-08T02:26:08;101642.97;;;24.73
64296;BMP280;51082;38.236;15.432;2023-07-08T02:27:12;101653.38;;;24.69
64296;BMP280;51082;38.236;15.432;2023-07-08T02:28:15;101656.31;;;24.68
64296;BMP280;51082;38.236;15.432;2023-07-08T02:29:19;101651.25;;;24.66
64296;BMP280;51082;38.236;15.432;2023-07-08T02:30:21;101653.91;;;24.66
64296;BMP280;51082;38.236;15.432;2023-07-08T02:31:23;101652.84;;;24.67
64296;BMP280;51082;38.236;15.432;2023-07-08T02:32:29;101655.53;;;24.67
64296;BMP280;51082;38.236;15.432;2023-07-08T02:33:30;101652.84;;;24.67
64296;BMP280;51082;38.236;15.432;2023-07-08T02:34:34;101650.19;;;24.67
64296;BMP280;51082;38.236;15.432;2023-07-08T02:35:35;101648.88;;;24.70
64296;BMP280;51082;38.236;15.432;2023-07-08T02:36:38;101649.91;;;24.69
64296;BMP280;51082;38.236;15.432;2023-07-08T02:37:40;101649.13;;;24.68
64296;BMP280;51082;38.236;15.432;2023-07-08T02:38:43;101642.47;;;24.66
64296;BMP280;51082;38.236;15.432;2023-07-08T02:39:46;101641.13;;;24.68
64296;BMP280;51082;38.236;15.432;2023-07-08T02:40:48;101653.38;;;24.69
64296;BMP280;51082;38.236;15.432;2023-07-08T02:41:50;101645.94;;;24.71
64296;BMP280;51082;38.236;15.432;2023-07-08T02:42:53;101651.00;;;24.68
64296;BMP280;51082;38.236;15.432;2023-07-08T02:43:55;101645.94;;;24.66
64296;BMP280;51082;38.236;15.432;2023-07-08T02:44:57;101653.91;;;24.66
64296;BMP280;51082;38.236;15.432;2023-07-08T02:46:01;101649.66;;;24.65
64296;BMP280;51082;38.236;15.432;2023-07-08T02:47:07;101649.13;;;24.63
64296;BMP280;51082;38.236;15.432;2023-07-08T02:48:09;101648.06;;;24.64
64296;BMP280;51082;38.236;15.432;2023-07-08T02:49:12;101651.25;;;24.66
64296;BMP280;51082;38.236;15.432;2023-07-08T02:50:17;101661.91;;;24.66
64296;BMP280;51082;38.236;15.432;2023-07-08T02:51:20;101657.13;;;24.68
64296;BMP280;51082;38.236;15.432;2023-07-08T02:52:21;101666.72;;;24.74
64296;BMP280;51082;38.236;15.432;2023-07-08T02:53:27;101669.09;;;24.76
64296;BMP280;51082;38.236;15.432;2023-07-08T02:54:28;101663.75;;;24.76
64296;BMP280;51082;38.236;15.432;2023-07-08T02:55:36;101663.28;;;24.79
64296;BMP280;51082;38.236;15.432;2023-07-08T02:56:40;101669.66;;;24.83
64296;BMP280;51082;38.236;15.432;2023-07-08T02:57:43;101666.41;;;24.86
64296;BMP280;51082;38.236;15.432;2023-07-08T02:58:45;101667.22;;;24.87
64296;BMP280;51082;38.236;15.432;2023-07-08T02:59:50;101668.84;;;24.88
64296;BMP280;51082;38.236;15.432;2023-07-08T03:00:52;101661.38;;;24.85
64296;BMP280;51082;38.236;15.432;2023-07-08T03:01:55;101668.84;;;24.82
64296;BMP280;51082;38.236;15.432;2023-07-08T03:02:57;101670.16;;;24.80
64296;BMP280;51082;38.236;15.432;2023-07-08T03:04:01;101672.56;;;24.81
64296;BMP280;51082;38.236;15.432;2023-07-08T03:05:03;101678.97;;;24.86
64296;BMP280;51082;38.236;15.432;2023-07-08T03:06:06;101686.44;;;24.83
64296;BMP280;51082;38.236;15.432;2023-07-08T03:07:08;101684.03;;;24.82
64296;BMP280;51082;38.236;15.432;2023-07-08T03:08:12;101692.28;;;24.80
64296;BMP280;51082;38.236;15.432;2023-07-08T03:09:14;101686.69;;;24.77
64296;BMP280;51082;38.236;15.432;2023-07-08T03:10:17;101694.94;;;24.80
64296;BMP280;51082;38.236;15.432;2023-07-08T03:11:20;101697.34;;;24.82
64296;BMP280;51082;38.236;15.432;2023-07-08T03:12:22;101694.97;;;24.86
64296;BMP280;51082;38.236;15.432;2023-07-08T03:13:24;101700.81;;;24.82
64296;BMP280;51082;38.236;15.432;2023-07-08T03:14:27;101709.34;;;24.85
64296;BMP280;51082;38.236;15.432;2023-07-08T03:15:29;101704.53;;;24.81
64296;BMP280;51082;38.236;15.432;2023-07-08T03:16:34;101713.88;;;24.84
64296;BMP280;51082;38.236;15.432;2023-07-08T03:17:36;101709.31;;;24.79
64296;BMP280;51082;38.236;15.432;2023-07-08T03:18:43;101706.38;;;24.76
64296;BMP280;51082;38.236;15.432;2023-07-08T03:19:47;101706.09;;;24.72
64296;BMP280;51082;38.236;15.432;2023-07-08T03:20:50;101709.88;;;24.71
64296;BMP280;51082;38.236;15.432;2023-07-08T03:21:52;101711.97;;;24.69
64296;BMP280;51082;38.236;15.432;2023-07-08T03:22:55;101706.38;;;24.66
64296;BMP280;51082;38.236;15.432;2023-07-08T03:23:58;101704.53;;;24.61
64296;BMP280;51082;38.236;15.432;2023-07-08T03:25:07;101706.63;;;24.59
64296;BMP280;51082;38.236;15.432;2023-07-08T03:26:13;101712.72;;;24.55
64296;BMP280;51082;38.236;15.432;2023-07-08T03:27:18;101713.53;;;24.50
64296;BMP280;51082;38.236;15.432;2023-07-08T03:29:22;101704.44;;;24.41
64296;BMP280;51082;38.236;15.432;2023-07-08T03:30:31;101701.28;;;24.39
64296;BMP280;51082;38.236;15.432;2023-07-08T03:31:33;101696.47;;;24.36
64296;BMP280;51082;38.236;15.432;2023-07-08T03:32:35;101691.16;;;24.36
64296;BMP280;51082;38.236;15.432;2023-07-08T03:33:38;101687.41;;;24.32
64296;BMP280;51082;38.236;15.432;2023-07-08T03:34:39;101694.34;;;24.33
64296;BMP280;51082;38.236;15.432;2023-07-08T03:35:42;101686.63;;;24.36
64296;BMP280;51082;38.236;15.432;2023-07-08T03:36:46;101693.28;;;24.34
64296;BMP280;51082;38.236;15.432;2023-07-08T03:37:49;101688.75;;;24.34
64296;BMP280;51082;38.236;15.432;2023-07-08T03:38:52;101687.41;;;24.32
64296;BMP280;51082;38.236;15.432;2023-07-08T03:39:55;101685.25;;;24.29
64296;BMP280;51082;38.236;15.432;2023-07-08T03:40:58;101687.38;;;24.27
64296;BMP280;51082;38.236;15.432;2023-07-08T03:42:03;101685.00;;;24.25
64296;BMP280;51082;38.236;15.432;2023-07-08T03:43:06;101692.69;;;24.27
64296;BMP280;51082;38.236;15.432;2023-07-08T03:44:09;101687.13;;;24.28
64296;BMP280;51082;38.236;15.432;2023-07-08T03:45:10;101694.31;;;24.28
64296;BMP280;51082;38.236;15.432;2023-07-08T03:46:17;101692.19;;;24.30
64296;BMP280;51082;38.236;15.432;2023-07-08T03:47:21;101697.50;;;24.30
64296;BMP280;51082;38.236;15.432;2023-07-08T03:48:24;101695.91;;;24.29
64296;BMP280;51082;38.236;15.432;2023-07-08T03:49:26;101691.66;;;24.28
64296;BMP280;51082;38.236;15.432;2023-07-08T03:50:31;101691.13;;;24.26
64296;BMP280;51082;38.236;15.432;2023-07-08T03:51:35;101687.66;;;24.25
64296;BMP280;51082;38.236;15.432;2023-07-08T03:52:38;101692.69;;;24.27
64296;BMP280;51082;38.236;15.432;2023-07-08T03:53:44;101694.03;;;24.24
64296;BMP280;51082;38.236;15.432;2023-07-08T03:54:47;101689.53;;;24.25
64296;BMP280;51082;38.236;15.432;2023-07-08T03:55:51;101682.56;;;24.24
64296;BMP280;51082;38.236;15.432;2023-07-08T03:56:54;101678.84;;;24.20
64296;BMP280;51082;38.236;15.432;2023-07-08T03:57:56;101676.16;;;24.20
64296;BMP280;51082;38.236;15.432;2023-07-08T03:59:01;101676.72;;;24.17
64296;BMP280;51082;38.236;15.432;2023-07-08T04:00:09;101680.19;;;24.22
64296;BMP280;51082;38.236;15.432;2023-07-08T04:01:14;101673.00;;;24.23
64296;BMP280;51082;38.236;15.432;2023-07-08T04:02:17;101678.88;;;24.25
64296;BMP280;51082;38.236;15.432;2023-07-08T04:03:20;101676.72;;;24.27
64296;BMP280;51082;38.236;15.432;2023-07-08T04:04:21;101671.69;;;24.25
64296;BMP280;51082;38.236;15.432;2023-07-08T04:05:26;101685.81;;;24.26
64296;BMP280;51082;38.236;15.432;2023-07-08T04:06:28;101687.38;;;24.27
64296;BMP280;51082;38.236;15.432;2023-07-08T04:07:31;101690.06;;;24.32
64296;BMP280;51082;38.236;15.432;2023-07-08T04:08:33;101687.41;;;24.32
64296;BMP280;51082;38.236;15.432;2023-07-08T04:09:35;101680.22;;;24.32
64296;BMP280;51082;38.236;15.432;2023-07-08T04:10:37;101689.53;;;24.30
64296;BMP280;51082;38.236;15.432;2023-07-08T04:11:40;101690.06;;;24.32
64296;BMP280;51082;38.236;15.432;2023-07-08T04:12:41;101687.41;;;24.32
64296;BMP280;51082;38.236;15.432;2023-07-08T04:13:44;101686.34;;;24.33
64296;BMP280;51082;38.236;15.432;2023-07-08T04:14:48;101681.00;;;24.38
64296;BMP280;51082;38.236;15.432;2023-07-08T04:15:53;101678.09;;;24.34
64296;BMP280;51082;38.236;15.432;2023-07-08T04:16:58;101670.38;;;24.33
64296;BMP280;51082;38.236;15.432;2023-07-08T04:18:03;101665.03;;;24.33
64296;BMP280;51082;38.236;15.432;2023-07-08T04:19:05;101664.78;;;24.29
64296;BMP280;51082;38.236;15.432;2023-07-08T04:20:17;101662.66;;;24.26
64296;BMP280;51082;38.236;15.432;2023-07-08T04:21:19;101663.72;;;24.25
64296;BMP280;51082;38.236;15.432;2023-07-08T04:22:23;101659.19;;;24.26
64296;BMP280;51082;38.236;15.432;2023-07-08T04:23:25;101657.03;;;24.28
64296;BMP280;51082;38.236;15.432;2023-07-08T04:24:30;101665.56;;;24.30
64296;BMP280;51082;38.236;15.432;2023-07-08T04:25:31;101657.06;;;24.33
64296;BMP280;51082;38.236;15.432;2023-07-08T04:26:34;101656.25;;;24.37
64296;BMP280;51082;38.236;15.432;2023-07-08T04:27:36;101657.06;;;24.38
64296;BMP280;51082;38.236;15.432;2023-07-08T04:28:41;101658.16;;;24.37
64296;BMP280;51082;38.236;15.432;2023-07-08T04:29:47;101665.88;;;24.38
64296;BMP280;51082;38.236;15.432;2023-07-08T04:30:51;101666.13;;;24.37
64296;BMP280;51082;38.236;15.432;2023-07-08T04:31:52;101658.16;;;24.37
64296;BMP280;51082;38.236;15.432;2023-07-08T04:32:56;101659.47;;;24.39
64296;BMP280;51082;38.236;15.432;2023-07-08T04:33:57;101654.44;;;24.43
64296;BMP280;51082;38.236;15.432;2023-07-08T04:36:03;101649.13;;;24.43
64296;BMP280;51082;38.236;15.432;2023-07-08T04:37:09;101652.81;;;24.47
64296;BMP280;51082;38.236;15.432;2023-07-08T04:38:17;101657.09;;;24.48
64296;BMP280;51082;38.236;15.432;2023-07-08T04:39:22;101659.75;;;24.53
64296;BMP280;51082;38.236;15.432;2023-07-08T04:40:24;101652.84;;;24.57
64296;BMP280;51082;38.236;15.432;2023-07-08T04:41:26;101645.94;;;24.61
64296;BMP280;51082;38.236;15.432;2023-07-08T04:42:28;101649.13;;;24.63
64296;BMP280;51082;38.236;15.432;2023-07-08T04:43:31;101636.88;;;24.62
64296;BMP280;51082;38.236;15.432;2023-07-08T04:44:33;101638.47;;;24.63
64296;BMP280;51082;38.236;15.432;2023-07-08T04:45:52;101623.03;;;24.65
64296;BMP280;51082;38.236;15.432;2023-07-08T04:46:56;101620.34;;;24.65
64296;BMP280;51082;38.236;15.432;2023-07-08T04:47:58;101616.63;;;24.66
64296;BMP280;51082;38.236;15.432;2023-07-08T04:49:03;101611.81;;;24.73
64296;BMP280;51082;38.236;15.432;2023-07-08T04:50:07;101630.50;;;24.89
64296;BMP280;51082;38.236;15.432;2023-07-08T04:51:11;101624.59;;;24.92
64296;BMP280;51082;38.236;15.432;2023-07-08T04:52:14;101627.81;;;24.89
64296;BMP280;51082;38.236;15.432;2023-07-08T04:53:17;101633.66;;;24.91
64296;BMP280;51082;38.236;15.432;2023-07-08T04:54:21;101627.81;;;24.94
64296;BMP280;51082;38.236;15.432;2023-07-08T04:55:24;101628.88;;;24.98
64296;BMP280;51082;38.236;15.432;2023-07-08T04:56:33;101633.09;;;25.04
64296;BMP280;51082;38.236;15.432;2023-07-08T04:57:37;101628.84;;;25.08
64296;BMP280;51082;38.236;15.432;2023-07-08T04:58:39;101631.50;;;25.13
64296;BMP280;51082;38.236;15.432;2023-07-08T04:59:42;101637.09;;;25.16
64296;BMP280;51082;38.236;15.432;2023-07-08T05:00:50;101641.34;;;25.23
64296;BMP280;51082;38.236;15.432;2023-07-08T05:01:53;101637.34;;;25.30
64296;BMP280;51082;38.236;15.432;2023-07-08T05:02:55;101638.41;;;25.34
64296;BMP280;51082;38.236;15.432;2023-07-08T05:03:58;101638.66;;;25.38
64296;BMP280;51082;38.236;15.432;2023-07-08T05:05:03;101637.56;;;25.44
64296;BMP280;51082;38.236;15.432;2023-07-08T05:06:06;101642.59;;;25.61
64296;BMP280;51082;38.236;15.432;2023-07-08T05:07:10;101651.00;;;25.83
64296;BMP280;51082;38.236;15.432;2023-07-08T05:08:16;101637.06;;;25.96
64296;BMP280;51082;38.236;15.432;2023-07-08T05:09:23;101641.81;;;26.09
64296;BMP280;51082;38.236;15.432;2023-07-08T05:10:27;101650.28;;;26.16
64296;BMP280;51082;38.236;15.432;2023-07-08T05:11:28;101649.75;;;26.19
64296;BMP280;51082;38.236;15.432;2023-07-08T05:12:32;101643.53;;;26.29
64296;BMP280;51082;38.236;15.432;2023-07-08T05:13:33;101637.06;;;26.40
64296;BMP280;51082;38.236;15.432;2023-07-08T05:14:36;101644.44;;;26.53
64296;BMP280;51082;38.236;15.432;2023-07-08T05:15:38;101633.94;;;26.62
64296;BMP280;51082;38.236;15.432;2023-07-08T05:16:43;101635.94;;;26.75
64296;BMP280;51082;38.236;15.432;2023-07-08T05:17:45;101631.06;;;26.82
64296;BMP280;51082;38.236;15.432;2023-07-08T05:18:48;101635.28;;;26.88
64296;BMP280;51082;38.236;15.432;2023-07-08T05:19:51;101636.84;;;26.94
64296;BMP280;51082;38.236;15.432;2023-07-08T05:20:55;101634.41;;;27.22
64296;BMP280;51082;38.236;15.432;2023-07-08T05:21:57;101636.47;;;27.30
64296;BMP280;51082;38.236;15.432;2023-07-08T05:23:00;101632.13;;;27.34
64296;BMP280;51082;38.236;15.432;2023-07-08T05:24:03;101633.53;;;27.50
64296;BMP280;51082;38.236;15.432;2023-07-08T05:25:07;101632.31;;;27.61
64296;BMP280;51082;38.236;15.432;2023-07-08T05:26:09;101637.03;;;27.88
64296;BMP280;51082;38.236;15.432;2023-07-08T05:27:13;101635.50;;;28.01
64296;BMP280;51082;38.236;15.432;2023-07-08T05:28:18;101636.94;;;28.12
64296;BMP280;51082;38.236;15.432;2023-07-08T05:29:22;101631.25;;;28.19
64296;BMP280;51082;38.236;15.432;2023-07-08T05:30:29;101629.84;;;28.35
64296;BMP280;51082;38.236;15.432;2023-07-08T05:31:32;101630.53;;;28.45
64296;BMP280;51082;38.236;15.432;2023-07-08T05:32:38;101631.72;;;28.67
64296;BMP280;51082;38.236;15.432;2023-07-08T05:33:40;101636.13;;;28.90
64296;BMP280;51082;38.236;15.432;2023-07-08T05:34:42;101641.97;;;28.92
64296;BMP280;51082;38.236;15.432;2023-07-08T05:35:45;101642.56;;;29.16
64296;BMP280;51082;38.236;15.432;2023-07-08T05:36:48;101647.59;;;29.45
64296;BMP280;51082;38.236;15.432;2023-07-08T05:37:51;101635.81;;;29.69
64296;BMP280;51082;38.236;15.432;2023-07-08T05:38:53;101643.34;;;29.80
64296;BMP280;51082;38.236;15.432;2023-07-08T05:39:56;101643.31;;;29.94
64296;BMP280;51082;38.236;15.432;2023-07-08T05:40:58;101638.19;;;30.15
64296;BMP280;51082;38.236;15.432;2023-07-08T05:42:01;101631.41;;;30.17
64296;BMP280;51082;38.236;15.432;2023-07-08T05:43:06;101634.94;;;30.26
64296;BMP280;51082;38.236;15.432;2023-07-08T05:44:09;101636.25;;;30.37
64296;BMP280;51082;38.236;15.432;2023-07-08T05:45:10;101638.38;;;30.49
64296;BMP280;51082;38.236;15.432;2023-07-08T05:46:17;101639.97;;;30.50
64296;BMP280;51082;38.236;15.432;2023-07-08T05:47:27;101639.97;;;30.50
64296;BMP280;51082;38.236;15.432;2023-07-08T05:48:33;101642.88;;;30.62
64296;BMP280;51082;38.236;15.432;2023-07-08T05:49:35;101643.06;;;30.66
64296;BMP280;51082;38.236;15.432;2023-07-08T05:50:39;101642.78;;;30.76
64296;BMP280;51082;38.236;15.432;2023-07-08T05:51:43;101638.88;;;30.91
64296;BMP280;51082;38.236;15.432;2023-07-08T05:52:49;101641.41;;;30.96
64296;BMP280;51082;38.236;15.432;2023-07-08T05:53:51;101637.16;;;31.03
64296;BMP280;51082;38.236;15.432;2023-07-08T05:54:53;101636.53;;;31.06
64296;BMP280;51082;38.236;15.432;2023-07-08T05:55:58;101642.09;;;31.10
64296;BMP280;51082;38.236;15.432;2023-07-08T05:57:01;101647.00;;;31.17
64296;BMP280;51082;38.236;15.432;2023-07-08T05:58:03;101647.00;;;31.17
64296;BMP280;51082;38.236;15.432;2023-07-08T05:59:06;101646.19;;;31.16
64296;BMP280;51082;38.236;15.432;2023-07-08T06:00:11;101644.47;;;31.20